createdAt,value
2016-11-18T00:00:31.960Z,11.9
2016-11-18T00:01:12.643Z,11.82
2016-11-18T00:01:53.228Z,11.85
2016-11-18T00:02:33.968Z,11.88
2016-11-18T00:03:14.699Z,11.88
2016-11-18T00:03:55.459Z,11.88
2016-11-18T00:04:36.222Z,11.87
2016-11-18T00:05:16.867Z,11.93
2016-11-18T00:05:57.509Z,11.9
2016-11-18T00:06:38.173Z,11.88
2016-11-18T00:07:18.809Z,11.87
2016-11-18T00:07:59.540Z,11.85
2016-11-18T00:08:40.143Z,11.78
2016-11-18T00:09:20.699Z,11.87
2016-11-18T00:10:01.413Z,11.84
2016-11-18T00:10:42.011Z,11.97
2016-11-18T00:11:22.712Z,11.87
2016-11-18T00:12:03.402Z,11.81
2016-11-18T00:12:44.078Z,11.74
2016-11-18T00:13:24.698Z,11.72
2016-11-18T00:14:05.253Z,11.77
2016-11-18T00:14:45.853Z,11.9
2016-11-18T00:15:26.409Z,11.82
2016-11-18T00:16:07.012Z,11.82
2016-11-18T00:16:47.730Z,11.96
2016-11-18T00:17:28.322Z,11.87
2016-11-18T00:18:08.976Z,11.78
2016-11-18T00:18:49.664Z,11.88
2016-11-18T00:19:30.326Z,11.84
2016-11-18T00:20:10.910Z,11.85
2016-11-18T00:20:51.631Z,11.67
2016-11-18T00:21:32.266Z,11.78
2016-11-18T00:22:12.802Z,11.82
2016-11-18T00:22:53.498Z,11.82
2016-11-18T00:23:34.161Z,11.88
2016-11-18T00:24:15.586Z,11.84
2016-11-18T00:24:56.171Z,11.87
2016-11-18T00:25:36.852Z,11.87
2016-11-18T00:26:17.489Z,11.88
2016-11-18T00:26:58.123Z,11.84
2016-11-18T00:27:38.744Z,11.94
2016-11-18T00:28:19.360Z,11.96
2016-11-18T00:28:59.991Z,11.79
2016-11-18T00:29:40.638Z,11.9
2016-11-18T00:30:21.315Z,11.82
2016-11-18T00:31:01.985Z,11.94
2016-11-18T00:31:42.615Z,11.94
2016-11-18T00:32:23.310Z,11.97
2016-11-18T00:33:03.947Z,11.93
2016-11-18T00:33:44.595Z,11.93
2016-11-18T00:34:25.197Z,11.96
2016-11-18T00:35:05.875Z,11.93
2016-11-18T00:35:46.513Z,12.08
2016-11-18T00:36:27.169Z,12
2016-11-18T00:37:07.827Z,12.04
2016-11-18T00:37:48.668Z,12.04
2016-11-18T00:38:29.239Z,12.03
2016-11-18T00:39:09.973Z,12.01
2016-11-18T00:39:50.583Z,12.05
2016-11-18T00:40:31.313Z,12.08
2016-11-18T00:41:12.014Z,12.05
2016-11-18T00:41:52.744Z,12
2016-11-18T00:42:33.400Z,12.05
2016-11-18T00:43:14.034Z,12.12
2016-11-18T00:43:54.678Z,12.19
2016-11-18T00:44:35.304Z,12.12
2016-11-18T00:45:16.054Z,12.11
2016-11-18T00:45:56.678Z,12.19
2016-11-18T00:46:37.258Z,12.19
2016-11-18T00:47:17.972Z,12.21
2016-11-18T00:47:58.632Z,12.23
2016-11-18T00:48:39.270Z,12.25
2016-11-18T00:49:19.975Z,12.19
2016-11-18T00:50:00.609Z,12.19
2016-11-18T00:50:41.338Z,12.15
2016-11-18T00:51:22.046Z,12.18
2016-11-18T00:52:02.655Z,12.21
2016-11-18T00:52:43.414Z,12.22
2016-11-18T00:53:24.154Z,12.22
2016-11-18T00:54:04.778Z,12.21
2016-11-18T00:54:45.352Z,12.15
2016-11-18T00:55:25.966Z,12.21
2016-11-18T00:56:06.591Z,12.23
2016-11-18T00:56:47.217Z,12.25
2016-11-18T00:57:27.843Z,12.18
2016-11-18T00:58:08.420Z,12.12
2016-11-18T00:58:49.035Z,12.13
2016-11-18T00:59:29.733Z,12.11
2016-11-18T01:00:10.371Z,12.13
2016-11-18T01:00:51.292Z,12.19
2016-11-18T01:01:32.190Z,12.22
2016-11-18T01:02:12.954Z,12.19
2016-11-18T01:02:53.756Z,12.26
2016-11-18T01:03:34.505Z,12.26
2016-11-18T01:04:15.385Z,12.18
2016-11-18T01:04:56.207Z,12.23
2016-11-18T01:05:36.957Z,12.16
2016-11-18T01:06:17.939Z,12.21
2016-11-18T01:06:58.712Z,12.23
2016-11-18T01:07:39.456Z,12.25
2016-11-18T01:08:20.265Z,12.23
2016-11-18T01:09:00.939Z,12.36
2016-11-18T01:09:42.503Z,12.34
2016-11-18T01:12:51.235Z,12.37
2016-11-18T01:13:35.870Z,12.38
2016-11-18T01:14:20.374Z,12.36
2016-11-18T01:15:01.498Z,12.41
2016-11-18T01:15:42.801Z,12.34
2016-11-18T01:16:24.984Z,12.36
2016-11-18T01:17:07.081Z,12.4
2016-11-18T01:17:48.144Z,12.4
2016-11-18T01:18:29.136Z,12.38
2016-11-18T01:19:10.135Z,12.4
2016-11-18T01:19:51.131Z,12.4
2016-11-18T01:20:32.117Z,12.49
2016-11-18T01:21:12.924Z,12.38
2016-11-18T01:21:54.083Z,12.44
2016-11-18T01:22:35.226Z,12.55
2016-11-18T01:23:16.122Z,12.54
2016-11-18T01:23:57.091Z,12.54
2016-11-18T01:24:37.911Z,12.54
2016-11-18T01:25:22.389Z,12.36
2016-11-18T01:26:03.213Z,12.34
2016-11-18T01:26:44.096Z,12.58
2016-11-18T01:27:24.901Z,12.49
2016-11-18T01:28:05.913Z,12.54
2016-11-18T01:28:46.866Z,12.56
2016-11-18T01:29:27.788Z,12.4
2016-11-18T01:30:08.717Z,12.51
2016-11-18T01:30:49.603Z,12.34
2016-11-18T01:31:30.514Z,12.55
2016-11-18T01:32:11.488Z,12.44
2016-11-18T01:32:52.367Z,12.51
2016-11-18T01:33:33.125Z,12.52
2016-11-18T01:34:14.149Z,12.37
2016-11-18T01:34:55.189Z,12.4
2016-11-18T01:35:36.201Z,12.4
2016-11-18T01:36:17.976Z,12.44
2016-11-18T01:36:58.885Z,12.54
2016-11-18T01:37:39.883Z,12.61
2016-11-18T01:38:20.862Z,12.51
2016-11-18T01:39:02.019Z,12.58
2016-11-18T01:39:43.052Z,12.58
2016-11-18T01:40:23.922Z,12.51
2016-11-18T01:41:04.991Z,12.52
2016-11-18T01:41:46.057Z,12.56
2016-11-18T01:42:26.918Z,12.56
2016-11-18T01:43:07.978Z,12.52
2016-11-18T01:43:49.095Z,12.55
2016-11-18T01:44:30.067Z,12.56
2016-11-18T01:45:11.026Z,12.54
2016-11-18T01:45:51.957Z,12.55
2016-11-18T01:46:32.853Z,12.51
2016-11-18T01:47:13.924Z,12.55
2016-11-18T01:47:55.059Z,12.55
2016-11-18T01:48:36.062Z,12.54
2016-11-18T01:49:17.101Z,12.51
2016-11-18T01:49:58.215Z,12.52
2016-11-18T01:50:39.078Z,12.52
2016-11-18T01:51:19.962Z,12.46
2016-11-18T01:52:00.898Z,12.52
2016-11-18T01:52:42.036Z,12.51
2016-11-18T01:53:23.134Z,12.51
2016-11-18T01:54:04.122Z,12.59
2016-11-18T01:54:45.372Z,12.43
2016-11-18T01:55:26.713Z,12.56
2016-11-18T01:56:07.759Z,12.51
2016-11-18T01:56:48.921Z,12.59
2016-11-18T01:57:30.139Z,12.56
2016-11-18T01:58:11.211Z,12.66
2016-11-18T01:58:52.367Z,12.59
2016-11-18T01:59:33.413Z,12.59
2016-11-18T02:00:14.645Z,12.52
2016-11-18T02:00:55.549Z,12.58
2016-11-18T02:01:36.566Z,12.52
2016-11-18T02:02:17.682Z,12.61
2016-11-18T02:02:58.970Z,12.55
2016-11-18T02:03:40.177Z,12.58
2016-11-18T02:04:21.518Z,12.55
2016-11-18T02:05:02.908Z,12.55
2016-11-18T02:05:44.171Z,12.56
2016-11-18T02:06:25.003Z,12.55
2016-11-18T02:07:06.172Z,12.51
2016-11-18T02:07:47.271Z,12.52
2016-11-18T02:08:28.300Z,12.55
2016-11-18T02:09:10.119Z,12.51
2016-11-18T02:09:50.356Z,12.55
2016-11-18T02:10:31.274Z,12.56
2016-11-18T02:11:12.461Z,12.49
2016-11-18T02:11:53.409Z,12.54
2016-11-18T02:12:34.641Z,12.63
2016-11-18T02:13:15.676Z,12.66
2016-11-18T02:13:56.682Z,12.55
2016-11-18T02:14:37.750Z,12.55
2016-11-18T02:15:18.746Z,12.55
2016-11-18T02:15:59.972Z,12.58
2016-11-18T02:16:41.078Z,12.54
2016-11-18T02:17:22.273Z,12.7
2016-11-18T02:18:03.359Z,12.62
2016-11-18T02:18:44.431Z,12.71
2016-11-18T02:19:25.474Z,12.71
2016-11-18T02:20:06.536Z,12.59
2016-11-18T02:20:47.501Z,12.56
2016-11-18T02:21:28.728Z,12.55
2016-11-18T02:22:09.995Z,12.51
2016-11-18T02:22:51.062Z,12.46
2016-11-18T02:23:32.042Z,12.52
2016-11-18T02:24:13.171Z,12.51
2016-11-18T02:24:54.223Z,12.46
2016-11-18T02:25:35.251Z,12.55
2016-11-18T02:26:16.444Z,12.55
2016-11-18T02:26:57.709Z,12.54
2016-11-18T02:27:38.900Z,12.52
2016-11-18T02:28:19.896Z,12.56
2016-11-18T02:29:01.042Z,12.46
2016-11-18T02:29:41.943Z,12.49
2016-11-18T02:30:22.998Z,12.59
2016-11-18T02:31:03.976Z,12.48
2016-11-18T02:31:44.888Z,12.52
2016-11-18T02:32:25.946Z,12.55
2016-11-18T02:33:06.851Z,12.48
2016-11-18T02:33:48.231Z,12.63
2016-11-18T02:34:29.301Z,12.58
2016-11-18T02:35:10.379Z,12.56
2016-11-18T02:35:51.460Z,12.55
2016-11-18T02:36:32.723Z,12.55
2016-11-18T02:37:14.054Z,12.55
2016-11-18T02:37:55.095Z,12.56
2016-11-18T02:38:36.207Z,12.49
2016-11-18T02:39:17.323Z,12.49
2016-11-18T02:39:58.511Z,12.43
2016-11-18T02:40:39.668Z,12.54
2016-11-18T02:41:20.663Z,12.38
2016-11-18T02:42:01.688Z,12.48
2016-11-18T02:42:42.693Z,12.38
2016-11-18T02:43:23.779Z,12.4
2016-11-18T02:44:04.879Z,12.54
2016-11-18T02:44:46.005Z,12.37
2016-11-18T02:45:26.913Z,12.4
2016-11-18T02:46:08.269Z,12.43
2016-11-18T02:46:49.433Z,12.46
2016-11-18T02:47:30.585Z,12.43
2016-11-18T02:48:11.669Z,12.44
2016-11-18T02:48:52.647Z,12.41
2016-11-18T02:49:33.988Z,12.41
2016-11-18T02:50:14.977Z,12.34
2016-11-18T02:50:55.829Z,12.36
2016-11-18T02:51:36.833Z,12.38
2016-11-18T02:52:17.702Z,12.44
2016-11-18T02:52:58.711Z,12.36
2016-11-18T02:53:39.598Z,12.38
2016-11-18T02:54:20.565Z,12.4
2016-11-18T02:55:01.478Z,12.33
2016-11-18T02:55:42.546Z,12.38
2016-11-18T02:56:23.568Z,12.33
2016-11-18T02:57:04.906Z,12.33
2016-11-18T02:57:45.963Z,12.36
2016-11-18T02:58:26.977Z,12.4
2016-11-18T02:59:08.060Z,12.33
2016-11-18T02:59:49.174Z,12.34
2016-11-18T03:00:30.288Z,12.37
2016-11-18T03:01:11.245Z,12.4
2016-11-18T03:01:52.171Z,12.37
2016-11-18T03:02:33.152Z,12.33
2016-11-18T03:03:13.996Z,12.37
2016-11-18T03:03:55.014Z,12.37
2016-11-18T03:04:36.724Z,12.36
2016-11-18T03:05:18.047Z,12.34
2016-11-18T03:06:00.146Z,12.37
2016-11-18T03:06:41.095Z,12.34
2016-11-18T03:07:22.417Z,12.4
2016-11-18T03:08:03.483Z,12.41
2016-11-18T03:08:44.499Z,12.46
2016-11-18T03:09:26.354Z,12.36
2016-11-18T03:10:07.602Z,12.41
2016-11-18T03:10:48.813Z,12.41
2016-11-18T03:11:30.271Z,12.38
2016-11-18T03:12:11.309Z,12.34
2016-11-18T03:12:52.540Z,12.38
2016-11-18T03:13:33.534Z,12.38
2016-11-18T03:14:14.557Z,12.4
2016-11-18T03:14:55.642Z,12.38
2016-11-18T03:15:36.689Z,12.4
2016-11-18T03:16:17.765Z,12.52
2016-11-18T03:16:58.641Z,12.36
2016-11-18T03:17:39.763Z,12.48
2016-11-18T03:18:20.871Z,12.38
2016-11-18T03:19:01.860Z,12.37
2016-11-18T03:19:42.970Z,12.36
2016-11-18T03:20:23.946Z,12.37
2016-11-18T03:21:05.040Z,12.48
2016-11-18T03:21:46.000Z,12.49
2016-11-18T03:22:26.967Z,12.49
2016-11-18T03:23:08.017Z,12.41
2016-11-18T03:23:48.996Z,12.54
2016-11-18T03:24:30.073Z,12.49
2016-11-18T03:25:11.160Z,12.48
2016-11-18T03:25:52.130Z,12.38
2016-11-18T03:26:33.268Z,12.38
2016-11-18T03:27:14.179Z,12.54
2016-11-18T03:27:55.241Z,12.49
2016-11-18T03:28:36.175Z,12.43
2016-11-18T03:29:17.268Z,12.54
2016-11-18T03:29:58.621Z,12.37
2016-11-18T03:30:39.730Z,12.51
2016-11-18T03:31:21.609Z,12.51
2016-11-18T03:32:01.792Z,12.49
2016-11-18T03:32:42.738Z,12.54
2016-11-18T03:33:23.765Z,12.52
2016-11-18T03:34:04.913Z,12.51
2016-11-18T03:34:45.970Z,12.52
2016-11-18T03:35:27.118Z,12.52
2016-11-18T03:36:08.119Z,12.62
2016-11-18T03:36:49.130Z,12.51
2016-11-18T03:37:30.025Z,12.52
2016-11-18T03:38:11.102Z,12.52
2016-11-18T03:38:52.156Z,12.55
2016-11-18T03:39:33.226Z,12.58
2016-11-18T03:40:14.185Z,12.63
2016-11-18T03:40:55.235Z,12.52
2016-11-18T03:41:35.994Z,12.49
2016-11-18T03:42:17.137Z,12.52
2016-11-18T03:42:58.185Z,12.3
2016-11-18T03:43:39.099Z,12.22
2016-11-18T03:44:20.113Z,12.01
2016-11-18T03:45:01.066Z,11.79
2016-11-18T03:45:42.008Z,11.72
2016-11-18T03:46:23.037Z,11.72
2016-11-18T03:47:04.012Z,11.36
2016-11-18T03:47:45.106Z,10.83
2016-11-18T03:48:26.096Z,10.55
2016-11-18T03:49:06.941Z,9.93
2016-11-18T03:49:47.859Z,9.83
2016-11-18T03:50:28.919Z,9.65
2016-11-18T03:51:09.823Z,9.45
2016-11-18T03:51:50.893Z,9.27
2016-11-18T03:52:32.185Z,9.1
2016-11-18T03:53:13.373Z,8.94
2016-11-18T03:53:54.553Z,8.96
2016-11-18T03:54:35.653Z,8.85
2016-11-18T03:55:16.695Z,8.85
2016-11-18T03:55:57.700Z,8.68
2016-11-18T03:56:38.749Z,8.73
2016-11-18T03:57:19.685Z,8.67
2016-11-18T03:58:00.825Z,8.43
2016-11-18T03:58:42.108Z,8.52
2016-11-18T03:59:23.176Z,8.34
2016-11-18T04:00:04.057Z,8.43
2016-11-18T04:00:45.155Z,8.43
2016-11-18T04:01:26.492Z,8.42
2016-11-18T04:02:07.385Z,8.32
2016-11-18T04:02:48.691Z,8.2
2016-11-18T04:03:29.695Z,8.25
2016-11-18T04:04:10.588Z,8.24
2016-11-18T04:04:51.587Z,8.28
2016-11-18T04:05:32.481Z,8.28
2016-11-18T04:06:13.495Z,8.1
2016-11-18T04:06:54.508Z,8.21
2016-11-18T04:07:35.737Z,8.18
2016-11-18T04:08:16.888Z,7.99
2016-11-18T04:08:57.968Z,7.96
2016-11-18T04:09:39.086Z,7.99
2016-11-18T04:10:20.104Z,7.95
2016-11-18T04:11:01.516Z,7.88
2016-11-18T04:11:42.515Z,7.88
2016-11-18T04:12:23.697Z,8.04
2016-11-18T04:13:04.741Z,7.84
2016-11-18T04:13:45.758Z,7.92
2016-11-18T04:14:26.705Z,7.82
2016-11-18T04:15:07.822Z,7.84
2016-11-18T04:15:48.960Z,7.88
2016-11-18T04:16:29.934Z,7.91
2016-11-18T04:17:10.932Z,7.94
2016-11-18T04:17:52.226Z,7.89
2016-11-18T04:18:33.241Z,7.92
2016-11-18T04:19:14.486Z,7.84
2016-11-18T04:19:55.597Z,7.74
2016-11-18T04:20:36.672Z,7.88
2016-11-18T04:21:17.820Z,7.91
2016-11-18T04:21:58.895Z,7.81
2016-11-18T04:22:40.018Z,7.86
2016-11-18T04:23:21.095Z,7.88
2016-11-18T04:24:02.393Z,7.85
2016-11-18T04:24:43.665Z,7.84
2016-11-18T04:25:25.372Z,7.88
2016-11-18T04:26:06.588Z,7.91
2016-11-18T04:26:47.881Z,7.77
2016-11-18T04:27:28.888Z,7.84
2016-11-18T04:28:09.850Z,7.84
2016-11-18T04:28:50.931Z,7.84
2016-11-18T04:29:32.131Z,7.84
2016-11-18T04:30:13.175Z,7.76
2016-11-18T04:30:54.564Z,7.86
2016-11-18T04:31:35.641Z,7.74
2016-11-18T04:32:16.778Z,7.82
2016-11-18T04:32:57.817Z,7.85
2016-11-18T04:33:39.020Z,7.88
2016-11-18T04:34:20.068Z,7.86
2016-11-18T04:35:01.200Z,7.85
2016-11-18T04:35:42.359Z,7.66
2016-11-18T04:36:23.418Z,7.79
2016-11-18T04:37:04.619Z,7.89
2016-11-18T04:37:45.657Z,7.77
2016-11-18T04:38:26.627Z,7.73
2016-11-18T04:39:07.784Z,7.7
2016-11-18T04:39:48.876Z,7.69
2016-11-18T04:40:30.039Z,7.74
2016-11-18T04:41:10.931Z,7.76
2016-11-18T04:41:52.107Z,7.76
2016-11-18T04:42:33.111Z,7.74
2016-11-18T04:43:14.139Z,7.62
2016-11-18T04:43:55.947Z,7.71
2016-11-18T04:44:37.091Z,7.69
2016-11-18T04:45:18.159Z,7.73
2016-11-18T04:45:59.143Z,7.7
2016-11-18T04:46:40.262Z,7.74
2016-11-18T04:47:21.336Z,7.79
2016-11-18T04:48:02.413Z,7.74
2016-11-18T04:48:43.510Z,7.81
2016-11-18T04:49:24.482Z,7.76
2016-11-18T04:50:05.481Z,7.76
2016-11-18T04:50:46.655Z,7.86
2016-11-18T04:51:27.604Z,7.84
2016-11-18T04:52:10.061Z,7.62
2016-11-18T04:52:53.505Z,7.63
2016-11-18T04:53:36.719Z,7.67
2016-11-18T04:54:19.744Z,7.62
2016-11-18T04:55:03.058Z,7.62
2016-11-18T04:55:45.640Z,7.57
2016-11-18T04:56:26.759Z,7.62
2016-11-18T04:57:07.826Z,7.73
2016-11-18T04:57:49.030Z,7.71
2016-11-18T04:58:30.163Z,7.79
2016-11-18T04:59:11.204Z,7.63
2016-11-18T04:59:52.491Z,7.77
2016-11-18T05:00:34.095Z,7.74
2016-11-18T05:01:15.245Z,7.66
2016-11-18T05:01:56.409Z,7.63
2016-11-18T05:02:37.416Z,7.62
2016-11-18T05:03:18.580Z,7.71
2016-11-18T05:03:59.528Z,7.71
2016-11-18T05:04:40.541Z,7.73
2016-11-18T05:05:21.522Z,7.79
2016-11-18T05:06:02.656Z,7.77
2016-11-18T05:06:43.615Z,7.71
2016-11-18T05:07:24.623Z,7.84
2016-11-18T05:08:05.479Z,7.74
2016-11-18T05:08:46.482Z,7.88
2016-11-18T05:09:27.571Z,7.74
2016-11-18T05:10:08.763Z,7.66
2016-11-18T05:10:50.893Z,7.79
2016-11-18T05:11:31.868Z,7.77
2016-11-18T05:12:12.969Z,7.79
2016-11-18T05:14:26.820Z,7.71
2016-11-18T05:15:07.897Z,7.79
2016-11-18T05:15:48.777Z,7.69
2016-11-18T05:16:29.698Z,7.71
2016-11-18T05:17:10.745Z,7.79
2016-11-18T05:17:51.692Z,7.77
2016-11-18T05:18:32.456Z,7.77
2016-11-18T05:19:13.460Z,7.74
2016-11-18T05:19:54.769Z,7.76
2016-11-18T05:20:35.786Z,7.71
2016-11-18T05:21:16.857Z,7.71
2016-11-18T05:21:57.971Z,7.74
2016-11-18T05:22:38.961Z,7.82
2016-11-18T05:23:20.053Z,7.84
2016-11-18T05:24:01.098Z,7.79
2016-11-18T05:24:41.955Z,7.74
2016-11-18T05:25:22.872Z,7.81
2016-11-18T05:26:03.852Z,7.74
2016-11-18T05:26:44.936Z,7.86
2016-11-18T05:27:25.845Z,7.79
2016-11-18T05:28:07.009Z,7.74
2016-11-18T05:28:47.935Z,7.77
2016-11-18T05:29:28.899Z,7.66
2016-11-18T05:30:09.853Z,7.76
2016-11-18T05:30:50.876Z,7.66
2016-11-18T05:31:32.265Z,7.66
2016-11-18T05:32:13.205Z,7.71
2016-11-18T05:32:54.165Z,7.67
2016-11-18T05:33:35.204Z,7.82
2016-11-18T05:34:16.390Z,7.84
2016-11-18T05:34:57.384Z,7.85
2016-11-18T05:35:38.460Z,7.76
2016-11-18T05:36:19.563Z,7.73
2016-11-18T05:37:00.699Z,7.71
2016-11-18T05:37:41.693Z,7.71
2016-11-18T05:38:22.695Z,7.6
2016-11-18T05:39:03.771Z,7.57
2016-11-18T05:39:44.839Z,7.73
2016-11-18T05:40:25.986Z,7.73
2016-11-18T05:41:07.075Z,7.67
2016-11-18T05:41:48.145Z,7.62
2016-11-18T05:42:29.236Z,7.6
2016-11-18T05:43:10.079Z,7.7
2016-11-18T05:43:51.212Z,7.71
2016-11-18T05:44:32.268Z,7.79
2016-11-18T05:45:13.649Z,7.74
2016-11-18T05:45:54.783Z,7.74
2016-11-18T05:46:35.900Z,7.67
2016-11-18T05:47:16.836Z,7.6
2016-11-18T05:47:57.796Z,7.6
2016-11-18T05:48:39.055Z,7.7
2016-11-18T05:49:20.349Z,7.6
2016-11-18T05:50:01.489Z,7.82
2016-11-18T05:50:42.744Z,7.73
2016-11-18T05:51:23.868Z,7.7
2016-11-18T05:52:05.034Z,7.71
2016-11-18T05:52:46.575Z,7.74
2016-11-18T05:53:27.507Z,7.58
2016-11-18T05:54:08.712Z,7.71
2016-11-18T05:54:49.684Z,7.6
2016-11-18T05:55:30.778Z,7.58
2016-11-18T05:56:11.919Z,7.63
2016-11-18T05:56:53.493Z,7.79
2016-11-18T05:57:34.614Z,7.7
2016-11-18T05:58:16.311Z,7.58
2016-11-18T05:58:57.764Z,7.71
2016-11-18T05:59:38.719Z,7.67
2016-11-18T06:00:19.844Z,7.67
2016-11-18T06:01:00.930Z,7.63
2016-11-18T06:01:41.928Z,7.66
2016-11-18T06:02:22.958Z,7.73
2016-11-18T06:03:04.203Z,7.73
2016-11-18T06:03:45.226Z,7.57
2016-11-18T06:04:26.294Z,7.58
2016-11-18T06:05:07.332Z,7.69
2016-11-18T06:05:48.565Z,7.57
2016-11-18T06:06:29.665Z,7.57
2016-11-18T06:07:10.778Z,7.66
2016-11-18T06:07:51.864Z,7.57
2016-11-18T06:08:33.653Z,7.71
2016-11-18T06:09:14.781Z,7.67
2016-11-18T06:09:55.888Z,7.63
2016-11-18T06:10:36.964Z,7.6
2016-11-18T06:11:17.878Z,7.63
2016-11-18T06:11:59.112Z,7.62
2016-11-18T06:12:40.213Z,7.57
2016-11-18T06:13:21.353Z,7.6
2016-11-18T06:14:02.284Z,7.62
2016-11-18T06:14:43.429Z,7.66
2016-11-18T06:15:24.496Z,7.7
2016-11-18T06:16:05.550Z,7.76
2016-11-18T06:16:46.616Z,7.85
2016-11-18T06:17:27.730Z,7.81
2016-11-18T06:18:08.795Z,7.74
2016-11-18T06:18:49.965Z,7.7
2016-11-18T06:19:31.003Z,7.74
2016-11-18T06:20:12.005Z,7.76
2016-11-18T06:20:53.019Z,7.71
2016-11-18T06:21:34.072Z,7.63
2016-11-18T06:22:15.188Z,7.62
2016-11-18T06:22:56.075Z,7.62
2016-11-18T06:23:37.054Z,7.74
2016-11-18T06:24:18.088Z,7.73
2016-11-18T06:24:59.130Z,7.77
2016-11-18T06:25:40.153Z,7.77
2016-11-18T06:26:21.224Z,7.71
2016-11-18T06:27:02.433Z,7.77
2016-11-18T06:27:43.423Z,7.82
2016-11-18T06:28:24.364Z,7.71
2016-11-18T06:29:07.897Z,7.6
2016-11-18T06:29:53.887Z,7.71
2016-11-18T06:30:36.974Z,7.73
2016-11-18T06:31:19.916Z,7.89
2016-11-18T06:32:00.241Z,7.66
2016-11-18T06:32:41.749Z,7.71
2016-11-18T06:33:25.909Z,7.71
2016-11-18T06:34:08.727Z,7.76
2016-11-18T06:34:49.526Z,7.7
2016-11-18T06:35:30.758Z,7.67
2016-11-18T06:36:11.807Z,7.76
2016-11-18T06:36:52.833Z,7.62
2016-11-18T06:37:33.964Z,7.62
2016-11-18T06:38:15.085Z,7.55
2016-11-18T06:38:56.194Z,7.48
2016-11-18T06:39:37.174Z,7.55
2016-11-18T06:40:18.171Z,7.51
2016-11-18T06:40:59.093Z,7.44
2016-11-18T06:41:40.252Z,7.39
2016-11-18T06:42:21.242Z,7.44
2016-11-18T06:43:02.248Z,7.32
2016-11-18T06:43:43.240Z,7.37
2016-11-18T06:44:24.165Z,7.39
2016-11-18T06:45:05.203Z,7.23
2016-11-18T06:45:46.169Z,7.37
2016-11-18T06:46:27.231Z,7.36
2016-11-18T06:47:08.295Z,7.26
2016-11-18T06:47:49.426Z,7.19
2016-11-18T06:48:30.549Z,7.19
2016-11-18T06:49:11.628Z,7.32
2016-11-18T06:49:52.859Z,7.12
2016-11-18T06:50:33.981Z,7.11
2016-11-18T06:51:15.014Z,7.24
2016-11-18T06:51:56.128Z,7.16
2016-11-18T06:52:37.272Z,7.21
2016-11-18T06:53:18.287Z,7.18
2016-11-18T06:53:59.470Z,7.18
2016-11-18T06:54:40.434Z,7.05
2016-11-18T06:55:21.206Z,7.07
2016-11-18T06:56:02.470Z,7.08
2016-11-18T06:56:43.679Z,7.12
2016-11-18T06:57:24.791Z,7.07
2016-11-18T06:58:05.714Z,7.05
2016-11-18T06:58:47.651Z,7.11
2016-11-18T06:59:28.972Z,7.12
2016-11-18T07:00:10.042Z,7.18
2016-11-18T07:00:51.032Z,7.09
2016-11-18T07:01:32.122Z,7.11
2016-11-18T07:02:13.289Z,7.16
2016-11-18T07:02:54.398Z,7.08
2016-11-18T07:03:35.381Z,7.08
2016-11-18T07:04:16.553Z,7.08
2016-11-18T07:04:57.662Z,7.09
2016-11-18T07:05:38.854Z,7.05
2016-11-18T07:06:19.760Z,7.19
2016-11-18T07:07:00.663Z,7.16
2016-11-18T07:07:41.749Z,7.16
2016-11-18T07:08:22.925Z,7.18
2016-11-18T07:09:04.036Z,7.18
2016-11-18T07:09:45.108Z,7.18
2016-11-18T07:10:26.332Z,7.3
2016-11-18T07:11:07.449Z,7.3
2016-11-18T07:11:48.501Z,7.32
2016-11-18T07:12:29.806Z,7.27
2016-11-18T07:13:10.782Z,7.3
2016-11-18T07:13:51.741Z,7.34
2016-11-18T07:14:32.814Z,7.32
2016-11-18T07:15:13.785Z,7.37
2016-11-18T07:15:54.645Z,7.42
2016-11-18T07:16:35.700Z,7.45
2016-11-18T07:17:16.601Z,7.36
2016-11-18T07:17:57.521Z,7.36
2016-11-18T07:18:38.415Z,7.36
2016-11-18T07:19:19.359Z,7.47
2016-11-18T07:20:00.233Z,7.41
2016-11-18T07:20:41.258Z,7.42
2016-11-18T07:21:22.366Z,7.48
2016-11-18T07:22:03.566Z,7.5
2016-11-18T07:22:44.593Z,7.47
2016-11-18T07:23:25.479Z,7.41
2016-11-18T07:24:06.563Z,7.51
2016-11-18T07:24:47.507Z,7.47
2016-11-18T07:25:28.492Z,7.52
2016-11-18T07:26:09.486Z,7.51
2016-11-18T07:26:50.560Z,7.6
2016-11-18T07:27:31.339Z,7.6
2016-11-18T07:28:12.328Z,7.71
2016-11-18T07:28:53.408Z,7.63
2016-11-18T07:29:34.446Z,7.71
2016-11-18T07:30:15.450Z,7.84
2016-11-18T07:30:56.352Z,7.79
2016-11-18T07:31:37.315Z,7.74
2016-11-18T07:32:18.297Z,7.85
2016-11-18T07:32:59.269Z,7.85
2016-11-18T07:33:40.263Z,7.79
2016-11-18T07:34:21.319Z,7.76
2016-11-18T07:35:02.324Z,7.95
2016-11-18T07:35:43.281Z,7.89
2016-11-18T07:36:24.242Z,7.88
2016-11-18T07:37:05.263Z,7.86
2016-11-18T07:37:46.249Z,7.91
2016-11-18T07:38:27.184Z,7.91
2016-11-18T07:39:08.333Z,7.94
2016-11-18T07:39:49.406Z,7.96
2016-11-18T07:40:30.294Z,8
2016-11-18T07:41:11.179Z,8.06
2016-11-18T07:41:52.074Z,8.18
2016-11-18T07:42:33.065Z,8.17
2016-11-18T07:43:14.082Z,8.2
2016-11-18T07:43:55.113Z,8.13
2016-11-18T07:44:36.011Z,8.29
2016-11-18T07:45:17.042Z,8.27
2016-11-18T07:45:58.134Z,8.27
2016-11-18T07:46:39.120Z,8.17
2016-11-18T07:47:20.086Z,8.24
2016-11-18T07:48:00.983Z,8.31
2016-11-18T07:48:42.039Z,8.42
2016-11-18T07:49:23.066Z,8.47
2016-11-18T07:50:03.978Z,8.34
2016-11-18T07:50:44.985Z,8.4
2016-11-18T07:51:25.917Z,8.5
2016-11-18T07:52:06.955Z,8.34
2016-11-18T07:52:47.982Z,8.49
2016-11-18T07:53:28.872Z,8.45
2016-11-18T07:54:09.886Z,8.5
2016-11-18T07:54:50.759Z,8.54
2016-11-18T07:55:31.672Z,8.54
2016-11-18T07:56:12.675Z,8.52
2016-11-18T07:56:53.624Z,8.61
2016-11-18T07:57:36.392Z,8.6
2016-11-18T07:58:16.820Z,8.64
2016-11-18T07:58:57.780Z,8.54
2016-11-18T07:59:38.841Z,8.57
2016-11-18T08:00:19.946Z,8.49
2016-11-18T08:01:01.053Z,8.57
2016-11-18T08:01:41.974Z,8.52
2016-11-18T08:02:22.826Z,8.57
2016-11-18T08:03:03.847Z,8.49
2016-11-18T08:03:44.849Z,8.52
2016-11-18T08:04:25.790Z,8.6
2016-11-18T08:05:06.849Z,8.58
2016-11-18T08:05:47.771Z,8.65
2016-11-18T08:06:28.754Z,8.73
2016-11-18T08:07:09.715Z,8.76
2016-11-18T08:07:50.542Z,8.8
2016-11-18T08:08:31.438Z,8.82
2016-11-18T08:09:12.452Z,8.91
2016-11-18T08:09:53.809Z,8.94
2016-11-18T08:10:35.053Z,8.96
2016-11-18T08:11:16.229Z,8.98
2016-11-18T08:11:57.569Z,9.16
2016-11-18T08:12:38.579Z,9.12
2016-11-18T08:13:19.564Z,9.17
2016-11-18T08:14:00.663Z,9.17
2016-11-18T08:14:41.768Z,9.13
2016-11-18T08:15:22.802Z,9.27
2016-11-18T08:16:03.822Z,9.35
2016-11-18T08:16:44.811Z,9.26
2016-11-18T08:17:25.850Z,9.31
2016-11-18T08:18:06.907Z,9.42
2016-11-18T08:18:47.736Z,9.49
2016-11-18T08:19:28.810Z,9.48
2016-11-18T08:20:09.873Z,9.58
2016-11-18T08:20:50.819Z,9.44
2016-11-18T08:21:31.848Z,9.45
2016-11-18T08:22:13.074Z,9.38
2016-11-18T08:22:54.097Z,9.37
2016-11-18T08:23:35.212Z,9.58
2016-11-18T08:24:16.131Z,9.58
2016-11-18T08:24:57.287Z,9.49
2016-11-18T08:25:38.405Z,9.56
2016-11-18T08:26:19.560Z,9.48
2016-11-18T08:27:00.824Z,9.48
2016-11-18T08:27:41.993Z,9.53
2016-11-18T08:28:23.025Z,9.62
2016-11-18T08:29:04.113Z,9.44
2016-11-18T08:29:45.284Z,9.6
2016-11-18T08:30:26.311Z,9.42
2016-11-18T08:31:07.362Z,9.41
2016-11-18T08:31:48.612Z,9.37
2016-11-18T08:32:29.605Z,9.16
2016-11-18T08:33:10.583Z,9.17
2016-11-18T08:33:51.734Z,9.1
2016-11-18T08:34:32.846Z,9.12
2016-11-18T08:35:13.993Z,9.06
2016-11-18T08:35:55.714Z,9.06
2016-11-18T08:36:36.656Z,9.13
2016-11-18T08:37:17.676Z,9.08
2016-11-18T08:37:58.727Z,9.08
2016-11-18T08:38:39.836Z,9.04
2016-11-18T08:39:20.895Z,9.16
2016-11-18T08:40:01.794Z,9.17
2016-11-18T08:40:42.811Z,9.04
2016-11-18T08:41:23.999Z,9.01
2016-11-18T08:42:05.053Z,8.94
2016-11-18T08:42:46.029Z,9.01
2016-11-18T08:43:27.034Z,8.91
2016-11-18T08:44:07.921Z,8.75
2016-11-18T08:44:48.962Z,8.54
2016-11-18T08:45:29.918Z,8.27
2016-11-18T08:46:11.149Z,7.89
2016-11-18T08:46:52.190Z,7.58
2016-11-18T08:47:33.063Z,7.15
2016-11-18T08:48:14.051Z,7.05
2016-11-18T08:48:55.070Z,7.08
2016-11-18T08:49:36.007Z,6.96
2016-11-18T08:50:16.968Z,6.96
2016-11-18T08:50:57.857Z,6.93
2016-11-18T08:51:38.624Z,6.93
2016-11-18T08:52:19.510Z,6.73
2016-11-18T08:53:00.632Z,6.75
2016-11-18T08:53:41.494Z,6.86
2016-11-18T08:54:22.399Z,6.82
2016-11-18T08:55:03.288Z,6.75
2016-11-18T08:55:44.404Z,6.78
2016-11-18T08:56:25.307Z,6.72
2016-11-18T08:57:06.322Z,6.79
2016-11-18T08:57:47.328Z,6.83
2016-11-18T08:58:28.364Z,6.86
2016-11-18T08:59:09.328Z,6.86
2016-11-18T08:59:50.285Z,6.79
2016-11-18T09:00:31.214Z,6.78
2016-11-18T09:01:12.142Z,6.75
2016-11-18T09:01:53.279Z,6.75
2016-11-18T09:02:34.295Z,6.76
2016-11-18T09:03:15.291Z,6.86
2016-11-18T09:03:56.334Z,6.87
2016-11-18T09:04:37.176Z,6.78